No data was retrieved for https://query.yahooapis.com/v1/public/yql?q=select+%2A+from+weather.forecast+where+woeid%3D731260&format=xml&u=c



METAR rapporten vliegvelden

   
EHAM - Amsterdam
Gewijzigd: 18-07-2019 14:55
Gedeeltelijk bewolkt  
Gedeeltelijk bewolkt  
   Wind: ZZW 24.1 km/h
Wind: ZZW 24.1 km/h
Temperatuur: 22°C
Dauwpunt: 14°C
Vochtigheid: 61%
Barometer: 1010 hPa
Bewolking: Gedeeltelijk bewolkt
Zicht: meer dan 10 km
Bewolking: Gedeeltelijk bewolkt 2400 ft
EHAM 181255Z 21013KT 180V250 9999 SCT024 22/14 Q1010 NOSIG
EHBK - Maastricht
Gewijzigd: 18-07-2019 14:55
Gedeeltelijk bewolkt  
Gedeeltelijk bewolkt  
   Wind: Westen 16.7 km/h
Wind: Westen 16.7 km/h
Temperatuur: 24°C
Dauwpunt: 13°C
Vochtigheid: 50%
Barometer: 1011 hPa
Bewolking: Gedeeltelijk bewolkt
Zicht: meer dan 10 km
Bewolking: Gedeeltelijk bewolkt
EHBK 181255Z AUTO 26009KT 210V310 9999 NSC 24/13 Q1011 NOSIG
ELLX - Luxemburg
Gewijzigd: 18-07-2019 14:50
Helder  
Helder  
   Wind: NW 18.5 km/h
Wind: NW 18.5 km/h
Temperatuur: 25°C
Dauwpunt: 10°C
Vochtigheid: 39%
Barometer: 1013 hPa
Zicht: meer dan 10 km
Bewolking: Helder
ELLX 181250Z 32010KT 290V350 CAVOK 25/10 Q1013 NOSIG
EDDL - Dusseldorf
Gewijzigd: 18-07-2019 14:50
Light Showers, Regen, Licht bewolkt  
Light Showers, Regen, Licht bewolkt  
   Wind: WZW 31.5 km/h
Wind: WZW 31.5 km/h
Temperatuur: 24°C
Dauwpunt: 11°C
Vochtigheid: 44%
Barometer: 1011 hPa
Bewolking: Licht bewolkt
Zicht: meer dan 10 km
Bewolking: Licht bewolkt 7000 ft
EDDL 181250Z 24017KT 210V280 9999 -SHRA FEW070CB 24/11 Q1011 BECMG 24007KT
  

Script ontwikkeld door  Saratoga-weather.org Aangepast voor de template door  Weerstation Leuven